sensor_id;sensor_type;location;lat;lon;timestamp;temperature;humidity
4103;DHT22;2065;49.790;9.620;2023-03-30T00:01:17;15.80;52.30
4103;DHT22;2065;49.790;9.620;2023-03-30T00:03:46;15.90;52.40
4103;DHT22;2065;49.790;9.620;2023-03-30T00:06:15;15.90;52.20
4103;DHT22;2065;49.790;9.620;2023-03-30T00:08:46;16.00;52.10
4103;DHT22;2065;49.790;9.620;2023-03-30T00:11:14;16.00;52.20
4103;DHT22;2065;49.790;9.620;2023-03-30T00:13:42;16.00;52.30
4103;DHT22;2065;49.790;9.620;2023-03-30T00:16:11;16.00;52.40
4103;DHT22;2065;49.790;9.620;2023-03-30T00:18:38;16.00;52.70
4103;DHT22;2065;49.790;9.620;2023-03-30T00:21:08;15.80;52.80
4103;DHT22;2065;49.790;9.620;2023-03-30T00:23:36;15.90;53.00
4103;DHT22;2065;49.790;9.620;2023-03-30T00:26:03;15.90;53.00
4103;DHT22;2065;49.790;9.620;2023-03-30T00:28:30;15.90;52.80
4103;DHT22;2065;49.790;9.620;2023-03-30T00:30:58;15.90;52.90
4103;DHT22;2065;49.790;9.620;2023-03-30T00:33:25;15.90;53.20
4103;DHT22;2065;49.790;9.620;2023-03-30T00:35:53;15.90;53.40
4103;DHT22;2065;49.790;9.620;2023-03-30T00:38:22;15.90;53.50
4103;DHT22;2065;49.790;9.620;2023-03-30T00:40:51;15.90;53.80
4103;DHT22;2065;49.790;9.620;2023-03-30T00:43:19;15.90;54.10
4103;DHT22;2065;49.790;9.620;2023-03-30T00:45:46;15.90;54.50
4103;DHT22;2065;49.790;9.620;2023-03-30T00:48:16;15.70;54.60
4103;DHT22;2065;49.790;9.620;2023-03-30T00:50:45;15.60;54.90
4103;DHT22;2065;49.790;9.620;2023-03-30T00:53:16;15.60;54.90
4103;DHT22;2065;49.790;9.620;2023-03-30T00:55:46;15.50;55.20
4103;DHT22;2065;49.790;9.620;2023-03-30T00:58:16;15.50;55.20
4103;DHT22;2065;49.790;9.620;2023-03-30T01:00:43;15.40;55.50
4103;DHT22;2065;49.790;9.620;2023-03-30T01:03:15;15.30;55.80
4103;DHT22;2065;49.790;9.620;2023-03-30T01:05:44;15.30;55.70
4103;DHT22;2065;49.790;9.620;2023-03-30T01:08:12;15.30;55.80
4103;DHT22;2065;49.790;9.620;2023-03-30T01:10:41;15.20;55.70
4103;DHT22;2065;49.790;9.620;2023-03-30T01:13:10;15.20;56.20
4103;DHT22;2065;49.790;9.620;2023-03-30T01:15:45;15.00;56.80
4103;DHT22;2065;49.790;9.620;2023-03-30T01:18:23;15.00;56.60
4103;DHT22;2065;49.790;9.620;2023-03-30T01:24:17;15.30;55.60
4103;DHT22;2065;49.790;9.620;2023-03-30T01:26:49;15.20;55.80
4103;DHT22;2065;49.790;9.620;2023-03-30T01:35:36;15.30;55.20
4103;DHT22;2065;49.790;9.620;2023-03-30T01:41:12;14.70;55.90
4103;DHT22;2065;49.790;9.620;2023-03-30T01:43:48;14.80;55.80
4103;DHT22;2065;49.790;9.620;2023-03-30T01:46:19;14.90;55.80
4103;DHT22;2065;49.790;9.620;2023-03-30T01:48:57;15.10;55.40
4103;DHT22;2065;49.790;9.620;2023-03-30T01:51:28;15.30;55.20
4103;DHT22;2065;49.790;9.620;2023-03-30T01:54:01;15.50;55.00
4103;DHT22;2065;49.790;9.620;2023-03-30T01:56:34;15.60;54.80
4103;DHT22;2065;49.790;9.620;2023-03-30T01:59:05;15.60;54.80
4103;DHT22;2065;49.790;9.620;2023-03-30T02:01:35;15.60;54.80
4103;DHT22;2065;49.790;9.620;2023-03-30T02:04:06;15.60;54.50
4103;DHT22;2065;49.790;9.620;2023-03-30T02:06:36;15.60;54.50
4103;DHT22;2065;49.790;9.620;2023-03-30T02:09:06;15.60;54.70
4103;DHT22;2065;49.790;9.620;2023-03-30T02:11:36;15.60;54.80
4103;DHT22;2065;49.790;9.620;2023-03-30T02:14:06;15.60;54.80
4103;DHT22;2065;49.790;9.620;2023-03-30T02:16:38;15.30;55.20
4103;DHT22;2065;49.790;9.620;2023-03-30T02:19:07;15.40;55.20
4103;DHT22;2065;49.790;9.620;2023-03-30T02:21:34;15.40;55.10
4103;DHT22;2065;49.790;9.620;2023-03-30T02:24:04;15.50;55.00
4103;DHT22;2065;49.790;9.620;2023-03-30T02:26:36;15.50;55.20
4103;DHT22;2065;49.790;9.620;2023-03-30T02:29:02;15.50;55.10
4103;DHT22;2065;49.790;9.620;2023-03-30T02:31:30;15.60;54.80
4103;DHT22;2065;49.790;9.620;2023-03-30T02:34:10;15.60;54.80
4103;DHT22;2065;49.790;9.620;2023-03-30T02:36:59;15.60;54.70
4103;DHT22;2065;49.790;9.620;2023-03-30T02:39:38;15.60;54.70
4103;DHT22;2065;49.790;9.620;2023-03-30T02:42:33;15.50;54.90
4103;DHT22;2065;49.790;9.620;2023-03-30T02:45:21;15.50;54.40
4103;DHT22;2065;49.790;9.620;2023-03-30T02:48:04;15.30;54.40
4103;DHT22;2065;49.790;9.620;2023-03-30T02:50:38;15.10;55.10
4103;DHT22;2065;49.790;9.620;2023-03-30T02:53:30;15.10;55.40
4103;DHT22;2065;49.790;9.620;2023-03-30T02:56:00;14.90;55.70
4103;DHT22;2065;49.790;9.620;2023-03-30T02:58:43;15.00;55.90
4103;DHT22;2065;49.790;9.620;2023-03-30T03:01:18;15.10;55.80
4103;DHT22;2065;49.790;9.620;2023-03-30T03:03:56;15.10;56.10
4103;DHT22;2065;49.790;9.620;2023-03-30T03:06:26;15.20;56.20
4103;DHT22;2065;49.790;9.620;2023-03-30T03:08:55;15.20;56.00
4103;DHT22;2065;49.790;9.620;2023-03-30T03:11:25;15.30;55.70
4103;DHT22;2065;49.790;9.620;2023-03-30T03:13:54;15.40;55.70
4103;DHT22;2065;49.790;9.620;2023-03-30T03:16:21;15.20;55.10
4103;DHT22;2065;49.790;9.620;2023-03-30T03:19:03;15.10;55.40
4103;DHT22;2065;49.790;9.620;2023-03-30T03:21:30;15.10;55.40
4103;DHT22;2065;49.790;9.620;2023-03-30T03:23:57;15.20;56.40
4103;DHT22;2065;49.790;9.620;2023-03-30T03:26:35;15.30;56.20
4103;DHT22;2065;49.790;9.620;2023-03-30T03:29:04;15.40;55.40
4103;DHT22;2065;49.790;9.620;2023-03-30T03:31:31;15.30;56.00
4103;DHT22;2065;49.790;9.620;2023-03-30T03:33:58;15.40;55.60
4103;DHT22;2065;49.790;9.620;2023-03-30T03:36:45;15.50;55.90
4103;DHT22;2065;49.790;9.620;2023-03-30T03:39:12;15.40;56.10
4103;DHT22;2065;49.790;9.620;2023-03-30T03:41:39;15.20;56.50
4103;DHT22;2065;49.790;9.620;2023-03-30T03:44:08;15.00;56.80
4103;DHT22;2065;49.790;9.620;2023-03-30T03:46:34;15.10;57.20
4103;DHT22;2065;49.790;9.620;2023-03-30T03:49:02;15.10;56.70
4103;DHT22;2065;49.790;9.620;2023-03-30T03:51:29;15.00;57.10
4103;DHT22;2065;49.790;9.620;2023-03-30T03:53:57;15.10;57.30
4103;DHT22;2065;49.790;9.620;2023-03-30T03:56:25;15.10;57.10
4103;DHT22;2065;49.790;9.620;2023-03-30T03:58:54;15.10;57.30
4103;DHT22;2065;49.790;9.620;2023-03-30T04:01:22;15.00;57.70
4103;DHT22;2065;49.790;9.620;2023-03-30T04:03:49;14.80;58.00
4103;DHT22;2065;49.790;9.620;2023-03-30T04:06:16;14.90;57.90
4103;DHT22;2065;49.790;9.620;2023-03-30T04:08:43;15.10;57.30
4103;DHT22;2065;49.790;9.620;2023-03-30T04:11:20;14.90;57.70
4103;DHT22;2065;49.790;9.620;2023-03-30T04:14:07;14.60;59.20
4103;DHT22;2065;49.790;9.620;2023-03-30T04:16:45;14.50;60.30
4103;DHT22;2065;49.790;9.620;2023-03-30T04:19:45;14.80;59.30
4103;DHT22;2065;49.790;9.620;2023-03-30T04:22:23;14.80;58.70
4103;DHT22;2065;49.790;9.620;2023-03-30T04:25:11;14.90;58.10
4103;DHT22;2065;49.790;9.620;2023-03-30T04:27:58;14.90;57.80
4103;DHT22;2065;49.790;9.620;2023-03-30T04:30:56;14.70;58.90
4103;DHT22;2065;49.790;9.620;2023-03-30T04:33:43;14.70;61.20
4103;DHT22;2065;49.790;9.620;2023-03-30T04:36:35;15.00;60.40
4103;DHT22;2065;49.790;9.620;2023-03-30T04:39:41;15.20;59.10
4103;DHT22;2065;49.790;9.620;2023-03-30T04:42:32;15.10;58.30
4103;DHT22;2065;49.790;9.620;2023-03-30T04:45:34;15.10;57.80
4103;DHT22;2065;49.790;9.620;2023-03-30T04:48:21;15.20;57.80
4103;DHT22;2065;49.790;9.620;2023-03-30T04:51:23;15.30;58.00
4103;DHT22;2065;49.790;9.620;2023-03-30T04:54:13;15.20;59.30
4103;DHT22;2065;49.790;9.620;2023-03-30T04:57:09;15.20;60.00
4103;DHT22;2065;49.790;9.620;2023-03-30T04:59:36;15.20;60.80
4103;DHT22;2065;49.790;9.620;2023-03-30T05:02:24;15.30;61.40
4103;DHT22;2065;49.790;9.620;2023-03-30T05:05:09;15.50;61.90
4103;DHT22;2065;49.790;9.620;2023-03-30T05:07:59;15.70;61.10
4103;DHT22;2065;49.790;9.620;2023-03-30T05:10:52;15.80;60.90
4103;DHT22;2065;49.790;9.620;2023-03-30T05:13:38;16.00;60.40
4103;DHT22;2065;49.790;9.620;2023-03-30T05:16:32;15.80;59.30
4103;DHT22;2065;49.790;9.620;2023-03-30T05:19:26;15.90;61.20
4103;DHT22;2065;49.790;9.620;2023-03-30T05:22:12;16.00;61.30
4103;DHT22;2065;49.790;9.620;2023-03-30T05:24:46;16.00;61.70
4103;DHT22;2065;49.790;9.620;2023-03-30T05:27:20;16.10;62.30
4103;DHT22;2065;49.790;9.620;2023-03-30T05:30:04;16.00;61.60
4103;DHT22;2065;49.790;9.620;2023-03-30T05:32:32;16.10;62.60
4103;DHT22;2065;49.790;9.620;2023-03-30T05:35:29;16.00;63.40
4103;DHT22;2065;49.790;9.620;2023-03-30T05:38:06;16.10;62.50
4103;DHT22;2065;49.790;9.620;2023-03-30T05:40:52;16.30;63.40
4103;DHT22;2065;49.790;9.620;2023-03-30T05:43:19;16.10;61.60
4103;DHT22;2065;49.790;9.620;2023-03-30T05:46:01;16.00;59.70
4103;DHT22;2065;49.790;9.620;2023-03-30T05:48:47;16.00;59.00
4103;DHT22;2065;49.790;9.620;2023-03-30T05:51:17;16.10;59.00
4103;DHT22;2065;49.790;9.620;2023-03-30T05:53:59;15.60;59.10
4103;DHT22;2065;49.790;9.620;2023-03-30T05:56:51;15.50;59.30
4103;DHT22;2065;49.790;9.620;2023-03-30T05:59:29;15.70;59.50
4103;DHT22;2065;49.790;9.620;2023-03-30T06:02:06;15.80;59.50
4103;DHT22;2065;49.790;9.620;2023-03-30T06:04:33;15.80;59.30
4103;DHT22;2065;49.790;9.620;2023-03-30T06:07:01;15.90;59.70
4103;DHT22;2065;49.790;9.620;2023-03-30T06:09:28;15.90;59.70
4103;DHT22;2065;49.790;9.620;2023-03-30T06:11:59;15.50;61.30
4103;DHT22;2065;49.790;9.620;2023-03-30T06:14:29;15.30;62.30
4103;DHT22;2065;49.790;9.620;2023-03-30T06:17:20;15.50;62.10
4103;DHT22;2065;49.790;9.620;2023-03-30T06:19:48;15.30;62.60
4103;DHT22;2065;49.790;9.620;2023-03-30T06:22:15;15.40;62.80
4103;DHT22;2065;49.790;9.620;2023-03-30T06:24:50;15.30;61.90
4103;DHT22;2065;49.790;9.620;2023-03-30T06:27:20;15.10;62.10
4103;DHT22;2065;49.790;9.620;2023-03-30T06:29:47;14.90;63.70
4103;DHT22;2065;49.790;9.620;2023-03-30T06:32:14;15.00;64.00
4103;DHT22;2065;49.790;9.620;2023-03-30T06:35:15;14.80;65.00
4103;DHT22;2065;49.790;9.620;2023-03-30T06:37:43;14.50;67.60
4103;DHT22;2065;49.790;9.620;2023-03-30T06:40:10;14.60;68.60
4103;DHT22;2065;49.790;9.620;2023-03-30T06:42:41;14.90;70.40
4103;DHT22;2065;49.790;9.620;2023-03-30T06:45:17;15.10;70.20
4103;DHT22;2065;49.790;9.620;2023-03-30T06:47:45;15.10;72.00
4103;DHT22;2065;49.790;9.620;2023-03-30T06:50:14;15.40;70.70
4103;DHT22;2065;49.790;9.620;2023-03-30T06:52:52;15.40;71.00
4103;DHT22;2065;49.790;9.620;2023-03-30T06:55:21;15.60;70.90
4103;DHT22;2065;49.790;9.620;2023-03-30T06:57:49;15.50;71.20
4103;DHT22;2065;49.790;9.620;2023-03-30T07:00:18;15.50;71.90
4103;DHT22;2065;49.790;9.620;2023-03-30T07:03:04;15.60;71.50
4103;DHT22;2065;49.790;9.620;2023-03-30T07:05:34;15.60;72.40
4103;DHT22;2065;49.790;9.620;2023-03-30T07:08:27;15.50;72.90
4103;DHT22;2065;49.790;9.620;2023-03-30T07:10:55;15.60;72.80
4103;DHT22;2065;49.790;9.620;2023-03-30T07:13:25;15.70;71.80
4103;DHT22;2065;49.790;9.620;2023-03-30T07:15:52;15.70;72.00
4103;DHT22;2065;49.790;9.620;2023-03-30T07:18:19;15.60;72.70
4103;DHT22;2065;49.790;9.620;2023-03-30T07:20:48;15.50;73.30
4103;DHT22;2065;49.790;9.620;2023-03-30T07:23:18;15.40;73.70
4103;DHT22;2065;49.790;9.620;2023-03-30T07:25:47;15.30;75.00
4103;DHT22;2065;49.790;9.620;2023-03-30T07:28:19;15.20;75.10
4103;DHT22;2065;49.790;9.620;2023-03-30T07:30:47;15.00;76.40
4103;DHT22;2065;49.790;9.620;2023-03-30T07:33:15;15.10;76.80
4103;DHT22;2065;49.790;9.620;2023-03-30T07:35:44;15.10;77.00
4103;DHT22;2065;49.790;9.620;2023-03-30T07:38:12;15.30;75.90
4103;DHT22;2065;49.790;9.620;2023-03-30T07:40:44;15.30;75.90
4103;DHT22;2065;49.790;9.620;2023-03-30T07:43:12;15.40;76.00
4103;DHT22;2065;49.790;9.620;2023-03-30T07:45:40;15.60;75.60
4103;DHT22;2065;49.790;9.620;2023-03-30T07:48:11;15.60;75.40
4103;DHT22;2065;49.790;9.620;2023-03-30T07:50:40;15.40;76.30
4103;DHT22;2065;49.790;9.620;2023-03-30T07:53:07;15.40;76.40
4103;DHT22;2065;49.790;9.620;2023-03-30T07:55:35;15.50;76.10
4103;DHT22;2065;49.790;9.620;2023-03-30T07:58:10;15.50;75.70
4103;DHT22;2065;49.790;9.620;2023-03-30T08:00:37;15.80;75.70
4103;DHT22;2065;49.790;9.620;2023-03-30T08:03:41;16.10;74.70
4103;DHT22;2065;49.790;9.620;2023-03-30T08:06:10;16.10;73.80
4103;DHT22;2065;49.790;9.620;2023-03-30T08:08:39;16.20;73.60
4103;DHT22;2065;49.790;9.620;2023-03-30T08:11:08;16.10;74.00
4103;DHT22;2065;49.790;9.620;2023-03-30T08:13:36;16.30;73.40
4103;DHT22;2065;49.790;9.620;2023-03-30T08:16:04;16.30;72.90
4103;DHT22;2065;49.790;9.620;2023-03-30T08:18:33;16.30;73.00
4103;DHT22;2065;49.790;9.620;2023-03-30T08:21:03;16.50;72.50
4103;DHT22;2065;49.790;9.620;2023-03-30T08:23:30;16.50;72.60
4103;DHT22;2065;49.790;9.620;2023-03-30T08:25:57;16.50;72.80
4103;DHT22;2065;49.790;9.620;2023-03-30T08:28:25;16.50;71.80
4103;DHT22;2065;49.790;9.620;2023-03-30T08:30:52;16.50;72.50
4103;DHT22;2065;49.790;9.620;2023-03-30T08:33:19;16.20;73.60
4103;DHT22;2065;49.790;9.620;2023-03-30T08:35:47;15.90;75.10
4103;DHT22;2065;49.790;9.620;2023-03-30T08:38:17;15.80;75.30
4103;DHT22;2065;49.790;9.620;2023-03-30T08:40:44;15.80;75.30
4103;DHT22;2065;49.790;9.620;2023-03-30T08:43:24;15.80;75.20
4103;DHT22;2065;49.790;9.620;2023-03-30T08:45:58;15.70;75.30
4103;DHT22;2065;49.790;9.620;2023-03-30T08:48:27;15.70;75.60
4103;DHT22;2065;49.790;9.620;2023-03-30T08:50:58;15.60;75.70
4103;DHT22;2065;49.790;9.620;2023-03-30T08:53:29;15.90;75.20
4103;DHT22;2065;49.790;9.620;2023-03-30T08:55:59;16.10;74.70
4103;DHT22;2065;49.790;9.620;2023-03-30T08:58:33;16.10;73.60
4103;DHT22;2065;49.790;9.620;2023-03-30T09:01:11;16.10;72.60
4103;DHT22;2065;49.790;9.620;2023-03-30T09:03:47;16.40;73.20
4103;DHT22;2065;49.790;9.620;2023-03-30T09:06:24;16.70;71.60
4103;DHT22;2065;49.790;9.620;2023-03-30T09:08:54;17.10;71.00
4103;DHT22;2065;49.790;9.620;2023-03-30T09:11:27;17.50;70.10
4103;DHT22;2065;49.790;9.620;2023-03-30T09:13:57;17.60;68.90
4103;DHT22;2065;49.790;9.620;2023-03-30T09:16:34;17.70;68.60
4103;DHT22;2065;49.790;9.620;2023-03-30T09:19:04;17.80;68.10
4103;DHT22;2065;49.790;9.620;2023-03-30T09:21:34;17.60;68.70
4103;DHT22;2065;49.790;9.620;2023-03-30T09:24:11;17.70;68.00
4103;DHT22;2065;49.790;9.620;2023-03-30T09:26:43;17.50;68.30
4103;DHT22;2065;49.790;9.620;2023-03-30T09:29:17;17.40;68.80
4103;DHT22;2065;49.790;9.620;2023-03-30T09:31:49;17.40;69.20
4103;DHT22;2065;49.790;9.620;2023-03-30T09:34:24;17.40;69.30
4103;DHT22;2065;49.790;9.620;2023-03-30T09:36:55;17.40;68.50
4103;DHT22;2065;49.790;9.620;2023-03-30T09:39:26;17.40;69.20
4103;DHT22;2065;49.790;9.620;2023-03-30T09:42:03;17.40;68.40
4103;DHT22;2065;49.790;9.620;2023-03-30T09:44:35;17.10;68.90
4103;DHT22;2065;49.790;9.620;2023-03-30T09:47:15;17.20;70.00
4103;DHT22;2065;49.790;9.620;2023-03-30T09:49:45;17.20;67.90
4103;DHT22;2065;49.790;9.620;2023-03-30T09:52:19;17.00;70.30
4103;DHT22;2065;49.790;9.620;2023-03-30T09:54:48;17.20;70.20
4103;DHT22;2065;49.790;9.620;2023-03-30T09:57:26;17.10;69.80
4103;DHT22;2065;49.790;9.620;2023-03-30T09:59:54;17.20;70.40
4103;DHT22;2065;49.790;9.620;2023-03-30T10:02:23;17.30;69.80
4103;DHT22;2065;49.790;9.620;2023-03-30T10:05:02;17.50;70.00
4103;DHT22;2065;49.790;9.620;2023-03-30T10:07:34;17.60;69.90
4103;DHT22;2065;49.790;9.620;2023-03-30T10:10:14;17.90;69.30
4103;DHT22;2065;49.790;9.620;2023-03-30T10:12:42;18.10;68.30
4103;DHT22;2065;49.790;9.620;2023-03-30T10:15:15;18.10;66.40
4103;DHT22;2065;49.790;9.620;2023-03-30T10:17:44;18.10;67.00
4103;DHT22;2065;49.790;9.620;2023-03-30T10:20:23;18.00;67.30
4103;DHT22;2065;49.790;9.620;2023-03-30T10:22:52;18.00;66.70
4103;DHT22;2065;49.790;9.620;2023-03-30T10:25:24;18.00;67.00
4103;DHT22;2065;49.790;9.620;2023-03-30T10:27:54;18.00;66.50
4103;DHT22;2065;49.790;9.620;2023-03-30T10:30:23;18.10;65.90
4103;DHT22;2065;49.790;9.620;2023-03-30T10:32:55;18.00;64.70
4103;DHT22;2065;49.790;9.620;2023-03-30T10:35:25;17.80;64.20
4103;DHT22;2065;49.790;9.620;2023-03-30T10:37:54;17.90;64.20
4103;DHT22;2065;49.790;9.620;2023-03-30T10:40:27;18.10;64.00
4103;DHT22;2065;49.790;9.620;2023-03-30T10:42:58;17.90;62.60
4103;DHT22;2065;49.790;9.620;2023-03-30T10:45:31;18.10;64.00
4103;DHT22;2065;49.790;9.620;2023-03-30T10:48:10;18.30;61.80
4103;DHT22;2065;49.790;9.620;2023-03-30T10:50:48;18.40;63.00
4103;DHT22;2065;49.790;9.620;2023-03-30T10:53:28;18.50;60.20
4103;DHT22;2065;49.790;9.620;2023-03-30T10:56:03;18.50;61.30
4103;DHT22;2065;49.790;9.620;2023-03-30T10:58:43;18.70;61.00
4103;DHT22;2065;49.790;9.620;2023-03-30T11:01:20;18.70;59.00
4103;DHT22;2065;49.790;9.620;2023-03-30T11:03:55;18.60;58.70
4103;DHT22;2065;49.790;9.620;2023-03-30T11:06:25;18.60;59.20
4103;DHT22;2065;49.790;9.620;2023-03-30T11:08:54;18.70;59.10
4103;DHT22;2065;49.790;9.620;2023-03-30T11:11:30;18.30;58.10
4103;DHT22;2065;49.790;9.620;2023-03-30T11:14:00;18.20;57.80
4103;DHT22;2065;49.790;9.620;2023-03-30T11:16:36;18.30;58.40
4103;DHT22;2065;49.790;9.620;2023-03-30T11:19:11;18.40;58.70
4103;DHT22;2065;49.790;9.620;2023-03-30T11:21:43;18.50;58.10
4103;DHT22;2065;49.790;9.620;2023-03-30T11:24:13;18.60;58.30
4103;DHT22;2065;49.790;9.620;2023-03-30T11:26:46;18.80;57.60
4103;DHT22;2065;49.790;9.620;2023-03-30T11:29:26;18.70;57.10
4103;DHT22;2065;49.790;9.620;2023-03-30T11:32:06;18.70;57.10
4103;DHT22;2065;49.790;9.620;2023-03-30T11:34:47;18.70;57.50
4103;DHT22;2065;49.790;9.620;2023-03-30T11:37:22;18.70;56.70
4103;DHT22;2065;49.790;9.620;2023-03-30T11:39:57;18.70;56.40
4103;DHT22;2065;49.790;9.620;2023-03-30T11:42:29;19.00;57.30
4103;DHT22;2065;49.790;9.620;2023-03-30T11:44:57;18.90;55.40
4103;DHT22;2065;49.790;9.620;2023-03-30T11:47:36;18.80;56.70
4103;DHT22;2065;49.790;9.620;2023-03-30T11:50:20;18.80;55.40
4103;DHT22;2065;49.790;9.620;2023-03-30T11:52:58;18.60;56.40
4103;DHT22;2065;49.790;9.620;2023-03-30T11:58:31;18.70;56.30
4103;DHT22;2065;49.790;9.620;2023-03-30T12:01:11;18.80;56.60
4103;DHT22;2065;49.790;9.620;2023-03-30T12:03:46;19.10;54.80
4103;DHT22;2065;49.790;9.620;2023-03-30T12:06:25;19.20;54.30
4103;DHT22;2065;49.790;9.620;2023-03-30T12:09:21;19.20;52.80
4103;DHT22;2065;49.790;9.620;2023-03-30T12:11:52;19.00;53.30
4103;DHT22;2065;49.790;9.620;2023-03-30T12:14:46;19.00;53.70
4103;DHT22;2065;49.790;9.620;2023-03-30T12:17:22;19.10;52.90
4103;DHT22;2065;49.790;9.620;2023-03-30T12:19:56;19.20;53.40
4103;DHT22;2065;49.790;9.620;2023-03-30T12:22:29;19.30;53.60
4103;DHT22;2065;49.790;9.620;2023-03-30T12:25:06;19.60;54.10
4103;DHT22;2065;49.790;9.620;2023-03-30T12:27:51;19.80;53.00
4103;DHT22;2065;49.790;9.620;2023-03-30T12:30:25;20.00;51.70
4103;DHT22;2065;49.790;9.620;2023-03-30T12:33:01;20.20;52.80
4103;DHT22;2065;49.790;9.620;2023-03-30T12:35:54;20.20;50.40
4103;DHT22;2065;49.790;9.620;2023-03-30T12:38:23;20.30;50.30
4103;DHT22;2065;49.790;9.620;2023-03-30T12:41:07;20.40;49.20
4103;DHT22;2065;49.790;9.620;2023-03-30T12:43:50;20.30;49.40
4103;DHT22;2065;49.790;9.620;2023-03-30T12:46:26;20.40;49.10
4103;DHT22;2065;49.790;9.620;2023-03-30T12:49:01;20.00;48.40
4103;DHT22;2065;49.790;9.620;2023-03-30T12:51:50;19.70;49.40
4103;DHT22;2065;49.790;9.620;2023-03-30T12:54:40;19.30;51.30
4103;DHT22;2065;49.790;9.620;2023-03-30T12:57:18;19.20;52.20
4103;DHT22;2065;49.790;9.620;2023-03-30T13:00:18;19.40;51.30
4103;DHT22;2065;49.790;9.620;2023-03-30T13:03:07;19.80;51.50
4103;DHT22;2065;49.790;9.620;2023-03-30T13:05:42;19.80;49.40
4103;DHT22;2065;49.790;9.620;2023-03-30T13:08:18;19.80;49.40
4103;DHT22;2065;49.790;9.620;2023-03-30T13:10:46;19.70;49.40
4103;DHT22;2065;49.790;9.620;2023-03-30T13:13:17;19.70;48.70
4103;DHT22;2065;49.790;9.620;2023-03-30T13:15:48;19.60;48.40
4103;DHT22;2065;49.790;9.620;2023-03-30T13:18:32;19.70;48.70
4103;DHT22;2065;49.790;9.620;2023-03-30T13:21:20;19.50;49.00
4103;DHT22;2065;49.790;9.620;2023-03-30T13:24:04;19.50;48.80
4103;DHT22;2065;49.790;9.620;2023-03-30T13:26:46;19.50;49.40
4103;DHT22;2065;49.790;9.620;2023-03-30T13:29:14;19.70;49.60
4103;DHT22;2065;49.790;9.620;2023-03-30T13:31:58;19.60;48.10
4103;DHT22;2065;49.790;9.620;2023-03-30T13:34:39;19.50;48.70
4103;DHT22;2065;49.790;9.620;2023-03-30T13:37:13;19.50;49.00
4103;DHT22;2065;49.790;9.620;2023-03-30T13:39:49;19.90;47.70
4103;DHT22;2065;49.790;9.620;2023-03-30T13:42:35;20.10;45.60
4103;DHT22;2065;49.790;9.620;2023-03-30T13:45:12;20.20;46.40
4103;DHT22;2065;49.790;9.620;2023-03-30T13:48:02;20.20;44.60
4103;DHT22;2065;49.790;9.620;2023-03-30T13:50:35;20.20;45.20
4103;DHT22;2065;49.790;9.620;2023-03-30T13:53:08;19.90;45.80
4103;DHT22;2065;49.790;9.620;2023-03-30T13:55:37;20.00;46.40
4103;DHT22;2065;49.790;9.620;2023-03-30T13:58:09;20.10;47.10
4103;DHT22;2065;49.790;9.620;2023-03-30T14:00:42;20.40;46.30
4103;DHT22;2065;49.790;9.620;2023-03-30T14:03:32;20.60;46.80
4103;DHT22;2065;49.790;9.620;2023-03-30T14:06:03;20.60;45.60
4103;DHT22;2065;49.790;9.620;2023-03-30T14:08:34;20.40;46.30
4103;DHT22;2065;49.790;9.620;2023-03-30T14:11:10;20.20;46.60
4103;DHT22;2065;49.790;9.620;2023-03-30T14:13:38;19.80;46.70
4103;DHT22;2065;49.790;9.620;2023-03-30T14:16:06;19.60;47.40
4103;DHT22;2065;49.790;9.620;2023-03-30T14:18:35;19.80;48.30
4103;DHT22;2065;49.790;9.620;2023-03-30T14:21:09;20.10;48.50
4103;DHT22;2065;49.790;9.620;2023-03-30T14:23:38;20.40;47.50
4103;DHT22;2065;49.790;9.620;2023-03-30T14:26:12;20.60;46.90
4103;DHT22;2065;49.790;9.620;2023-03-30T14:28:39;20.70;46.30
4103;DHT22;2065;49.790;9.620;2023-03-30T14:31:13;20.60;45.10
4103;DHT22;2065;49.790;9.620;2023-03-30T14:33:40;20.40;46.50
4103;DHT22;2065;49.790;9.620;2023-03-30T14:36:09;20.70;46.10
4103;DHT22;2065;49.790;9.620;2023-03-30T14:38:39;20.80;45.60
4103;DHT22;2065;49.790;9.620;2023-03-30T14:41:08;20.90;45.80
4103;DHT22;2065;49.790;9.620;2023-03-30T14:43:37;20.60;45.20
4103;DHT22;2065;49.790;9.620;2023-03-30T14:46:08;20.70;45.50
4103;DHT22;2065;49.790;9.620;2023-03-30T14:48:38;20.80;45.10
4103;DHT22;2065;49.790;9.620;2023-03-30T14:51:18;21.00;45.00
4103;DHT22;2065;49.790;9.620;2023-03-30T14:53:46;20.80;43.60
4103;DHT22;2065;49.790;9.620;2023-03-30T14:56:15;20.90;43.90
4103;DHT22;2065;49.790;9.620;2023-03-30T14:58:43;21.00;45.10
4103;DHT22;2065;49.790;9.620;2023-03-30T15:01:14;21.30;45.70
4103;DHT22;2065;49.790;9.620;2023-03-30T15:03:42;21.40;44.80
4103;DHT22;2065;49.790;9.620;2023-03-30T15:06:14;21.50;44.10
4103;DHT22;2065;49.790;9.620;2023-03-30T15:08:45;21.50;43.80
4103;DHT22;2065;49.790;9.620;2023-03-30T15:11:15;21.50;43.40
4103;DHT22;2065;49.790;9.620;2023-03-30T15:13:54;21.10;42.10
4103;DHT22;2065;49.790;9.620;2023-03-30T15:16:25;20.70;44.10
4103;DHT22;2065;49.790;9.620;2023-03-30T15:18:57;20.30;41.90
4103;DHT22;2065;49.790;9.620;2023-03-30T15:21:29;20.00;43.00
4103;DHT22;2065;49.790;9.620;2023-03-30T15:23:58;20.00;43.50
4103;DHT22;2065;49.790;9.620;2023-03-30T15:26:26;19.80;47.10
4103;DHT22;2065;49.790;9.620;2023-03-30T15:28:56;19.50;45.60
4103;DHT22;2065;49.790;9.620;2023-03-30T15:31:25;19.40;47.10
4103;DHT22;2065;49.790;9.620;2023-03-30T15:33:54;19.50;45.90
4103;DHT22;2065;49.790;9.620;2023-03-30T15:36:24;19.50;47.60
4103;DHT22;2065;49.790;9.620;2023-03-30T15:38:52;19.40;48.70
4103;DHT22;2065;49.790;9.620;2023-03-30T15:41:21;19.30;48.10
4103;DHT22;2065;49.790;9.620;2023-03-30T15:43:59;19.30;50.80
4103;DHT22;2065;49.790;9.620;2023-03-30T15:46:35;19.50;51.60
4103;DHT22;2065;49.790;9.620;2023-03-30T15:49:03;19.50;50.10
4103;DHT22;2065;49.790;9.620;2023-03-30T15:51:34;18.90;48.00
4103;DHT22;2065;49.790;9.620;2023-03-30T15:54:04;18.10;48.20
4103;DHT22;2065;49.790;9.620;2023-03-30T15:56:39;17.90;51.30
4103;DHT22;2065;49.790;9.620;2023-03-30T15:59:11;17.90;50.50
4103;DHT22;2065;49.790;9.620;2023-03-30T16:01:42;18.10;50.30
4103;DHT22;2065;49.790;9.620;2023-03-30T16:04:12;18.40;48.70
4103;DHT22;2065;49.790;9.620;2023-03-30T16:06:39;18.50;48.10
4103;DHT22;2065;49.790;9.620;2023-03-30T16:09:07;18.70;47.90
4103;DHT22;2065;49.790;9.620;2023-03-30T16:11:34;18.90;47.50
4103;DHT22;2065;49.790;9.620;2023-03-30T16:14:02;18.90;46.30
4103;DHT22;2065;49.790;9.620;2023-03-30T16:16:32;18.80;46.70
4103;DHT22;2065;49.790;9.620;2023-03-30T16:18:58;19.00;47.00
4103;DHT22;2065;49.790;9.620;2023-03-30T16:21:26;18.90;46.10
4103;DHT22;2065;49.790;9.620;2023-03-30T16:23:53;19.00;46.10
4103;DHT22;2065;49.790;9.620;2023-03-30T16:26:20;19.10;46.40
4103;DHT22;2065;49.790;9.620;2023-03-30T16:28:49;18.90;46.90
4103;DHT22;2065;49.790;9.620;2023-03-30T16:31:19;19.00;46.20
4103;DHT22;2065;49.790;9.620;2023-03-30T16:33:48;19.00;46.10
4103;DHT22;2065;49.790;9.620;2023-03-30T16:36:17;19.20;46.00
4103;DHT22;2065;49.790;9.620;2023-03-30T16:38:45;19.10;45.90
4103;DHT22;2065;49.790;9.620;2023-03-30T16:41:15;19.30;46.10
4103;DHT22;2065;49.790;9.620;2023-03-30T16:43:43;19.30;46.40
4103;DHT22;2065;49.790;9.620;2023-03-30T16:46:11;19.40;46.50
4103;DHT22;2065;49.790;9.620;2023-03-30T16:48:38;19.10;45.90
4103;DHT22;2065;49.790;9.620;2023-03-30T16:51:09;19.00;46.40
4103;DHT22;2065;49.790;9.620;2023-03-30T16:53:36;18.80;46.40
4103;DHT22;2065;49.790;9.620;2023-03-30T16:56:03;18.90;46.80
4103;DHT22;2065;49.790;9.620;2023-03-30T16:58:30;19.00;46.60
4103;DHT22;2065;49.790;9.620;2023-03-30T17:00:57;19.00;46.80